FlightSource - Aviation Photo Database

World Wide Airport Lookup


Search by ICAO
Or
Search by City

FlightSource.ca - Aviation Photo Database - Whiteside Co Jos H Bittorf Airport Information
Airport Identification
Name: Whiteside Co Jos H Bittorf Airport
ICAO: KSQI
IATA:
Airport Location
City: Sterling/Rockfalls
Region: IL
Country: United States
Continent: North America
Latitude: 41.7428
Longitude: -89.6763
Airport Information
Type: Small Airport
Elevation: 647 Feet ASL
Flight Status: KSQI
More Info: KSQI
Airport Weather    
Metar: KSQI 120556Z AUTO 34018G24KT 10SM OVC039 M01/M05 A3000 RMK AO2 SLP183 6//// T10111050 400611089 51023 FZRANO
TAF:


Advertisement